createdAt,value
2023-03-20T00:02:21.842Z,102130.94
2023-03-20T00:04:48.467Z,102131.78
2023-03-20T00:07:14.938Z,102127.53
2023-03-20T00:09:42.390Z,102131.75
2023-03-20T00:12:15.581Z,102130.94
2023-03-20T00:14:42.472Z,102131.78
2023-03-20T00:17:18.327Z,102136.00
2023-03-20T00:19:44.952Z,102134.31
2023-03-20T00:22:12.432Z,102134.31
2023-03-20T00:24:39.883Z,102132.59
2023-03-20T00:27:06.615Z,102123.25
2023-03-20T00:29:34.328Z,102125.78
2023-03-20T00:32:01.100Z,102122.41
2023-03-20T00:34:32.593Z,102119.84
2023-03-20T00:37:00.046Z,102118.16
2023-03-20T00:39:27.185Z,102114.75
2023-03-20T00:42:00.671Z,102107.94
2023-03-20T00:44:35.909Z,102104.56
2023-03-20T00:47:20.644Z,102126.66
2023-03-20T00:49:50.818Z,102132.63
2023-03-20T00:52:18.995Z,102139.41
2023-03-20T00:54:45.676Z,102146.22
2023-03-20T00:57:24.454Z,102147.06
2023-03-20T00:59:53.541Z,102153.88
2023-03-20T01:02:23.566Z,102164.09
2023-03-20T01:04:50.361Z,102175.13
2023-03-20T01:07:16.833Z,102175.97
2023-03-20T01:09:43.314Z,102172.59
2023-03-20T01:12:14.817Z,102184.50
2023-03-20T01:14:42.865Z,102164.06
2023-03-20T01:17:19.639Z,102153.88
2023-03-20T01:19:46.395Z,102145.34
2023-03-20T01:22:14.253Z,102153.00
2023-03-20T01:24:41.244Z,102167.47
2023-03-20T01:27:16.539Z,102170.03
2023-03-20T01:29:43.239Z,102165.78
2023-03-20T01:32:12.830Z,102157.28
2023-03-20T01:34:39.600Z,102154.72
2023-03-20T01:37:12.605Z,102165.78
2023-03-20T01:39:39.130Z,102160.66
2023-03-20T01:42:07.189Z,102158.97
2023-03-20T01:44:35.877Z,102145.38
2023-03-20T01:47:04.557Z,102149.63
2023-03-20T01:50:08.362Z,102158.13
2023-03-20T01:52:34.952Z,102158.13
2023-03-20T01:55:02.648Z,102160.69
2023-03-20T01:57:29.228Z,102142.81
2023-03-20T02:00:04.588Z,102145.34
2023-03-20T02:02:32.833Z,102129.16
2023-03-20T02:05:03.939Z,102134.28
2023-03-20T02:07:32.559Z,102141.06
2023-03-20T02:09:59.459Z,102154.69
2023-03-20T02:12:25.895Z,102155.53
2023-03-20T02:14:53.094Z,102143.63
2023-03-20T02:17:20.043Z,102138.50
2023-03-20T02:20:25.012Z,102145.31
2023-03-20T02:23:12.488Z,102146.97
2023-03-20T02:25:56.989Z,102137.66
2023-03-20T02:28:33.288Z,102138.50
2023-03-20T02:30:59.731Z,102130.84
2023-03-20T02:33:54.167Z,102121.50
2023-03-20T02:36:51.833Z,102120.63
2023-03-20T02:39:55.990Z,102129.97
2023-03-20T02:42:35.043Z,102129.94
2023-03-20T02:45:01.791Z,102124.84
2023-03-20T02:47:41.129Z,102124.84
2023-03-20T02:50:24.808Z,102131.63
2023-03-20T02:53:15.651Z,102129.94
2023-03-20T02:55:52.963Z,102123.13
2023-03-20T02:58:28.367Z,102107.84
2023-03-20T03:01:01.565Z,102104.47
2023-03-20T03:03:38.216Z,102095.09
2023-03-20T03:06:37.216Z,102080.63
2023-03-20T03:09:12.027Z,102075.53
2023-03-20T03:11:45.250Z,102067.00
2023-03-20T03:14:30.320Z,102067.84
2023-03-20T03:16:59.145Z,102071.22
2023-03-20T03:19:28.381Z,102078.88
2023-03-20T03:21:55.504Z,102066.09
2023-03-20T03:24:40.885Z,102081.38
2023-03-20T03:27:18.196Z,102083.09
2023-03-20T03:29:49.459Z,102085.66
2023-03-20T03:32:35.743Z,102087.31
2023-03-20T03:35:06.382Z,102078.81
2023-03-20T03:38:14.386Z,102078.81
2023-03-20T03:40:41.217Z,102065.19
2023-03-20T03:43:17.476Z,102067.75
2023-03-20T03:45:51.782Z,102062.59
2023-03-20T03:48:22.868Z,102064.28
2023-03-20T03:50:54.829Z,102068.53
2023-03-20T03:53:28.022Z,102059.19
2023-03-20T03:55:59.298Z,102062.56
2023-03-20T03:58:37.848Z,102059.97
2023-03-20T04:01:07.752Z,102054.03
2023-03-20T04:03:40.188Z,102052.31
2023-03-20T04:06:10.299Z,102042.97
2023-03-20T04:08:40.689Z,102045.53
2023-03-20T04:11:07.668Z,102044.66
2023-03-20T04:13:34.059Z,102042.09
2023-03-20T04:16:00.594Z,102042.09
2023-03-20T04:18:27.015Z,102037.84
2023-03-20T04:20:53.584Z,102042.09
2023-03-20T04:23:20.112Z,102038.69
2023-03-20T04:25:46.632Z,102038.69
2023-03-20T04:28:16.254Z,102036.16
2023-03-20T04:30:44.296Z,102036.16
2023-03-20T04:33:10.914Z,102026.81
2023-03-20T04:35:39.945Z,102036.16
2023-03-20T04:38:07.304Z,102036.16
2023-03-20T04:40:33.773Z,102051.44
2023-03-20T04:43:00.373Z,102042.09
2023-03-20T04:45:26.855Z,102038.66
2023-03-20T04:47:53.396Z,102047.13
2023-03-20T04:50:20.022Z,102038.66
2023-03-20T04:52:46.522Z,102047.13
2023-03-20T04:55:13.026Z,102046.31
2023-03-20T04:57:39.523Z,102046.31
2023-03-20T05:00:06.694Z,102037.00
2023-03-20T05:02:33.193Z,102034.44
2023-03-20T05:04:59.753Z,102036.13
2023-03-20T05:07:26.477Z,102041.22
2023-03-20T05:09:52.942Z,102030.19
2023-03-20T05:12:19.488Z,102021.72
2023-03-20T05:14:46.172Z,102021.72
2023-03-20T05:17:12.686Z,102023.41
2023-03-20T05:19:39.252Z,102026.81
2023-03-20T05:22:05.685Z,102034.44
2023-03-20T05:24:32.419Z,102028.50
2023-03-20T05:26:58.941Z,102024.25
2023-03-20T05:29:25.406Z,102037.84
2023-03-20T05:31:51.950Z,102031.91
2023-03-20T05:34:18.671Z,102035.28
2023-03-20T05:36:45.571Z,102025.09
2023-03-20T05:39:12.012Z,102021.69
2023-03-20T05:41:38.474Z,102031.03
2023-03-20T05:44:05.604Z,102035.28
2023-03-20T05:46:32.150Z,102039.50
2023-03-20T05:48:58.610Z,102046.31
2023-03-20T05:51:25.012Z,102042.06
2023-03-20T05:53:52.608Z,102048.00
2023-03-20T05:56:19.175Z,102058.19
2023-03-20T05:58:45.661Z,102060.75
2023-03-20T06:01:12.120Z,102053.94
2023-03-20T06:03:38.928Z,102054.78
2023-03-20T06:06:05.792Z,102060.75
2023-03-20T06:08:32.510Z,102045.47
2023-03-20T06:10:59.119Z,102051.44
2023-03-20T06:13:25.650Z,102048.03
2023-03-20T06:15:52.295Z,102042.09
2023-03-20T06:18:18.919Z,102039.56
2023-03-20T06:20:45.479Z,102049.78
2023-03-20T06:23:12.044Z,102054.00
2023-03-20T06:25:38.854Z,102056.53
2023-03-20T06:28:05.395Z,102054.88
2023-03-20T06:30:31.915Z,102056.53
2023-03-20T06:32:58.624Z,102062.50
2023-03-20T06:35:25.455Z,102071.81
2023-03-20T06:37:51.897Z,102065.06
2023-03-20T06:40:18.359Z,102071.00
2023-03-20T06:42:44.797Z,102071.84
2023-03-20T06:45:12.236Z,102076.94
2023-03-20T06:47:38.730Z,102073.53
2023-03-20T06:50:05.632Z,102071.88
2023-03-20T06:52:32.157Z,102080.34
2023-03-20T06:54:58.716Z,102082.88
2023-03-20T06:57:25.298Z,102078.66
2023-03-20T06:59:51.748Z,102080.38
2023-03-20T07:02:18.262Z,102082.09
2023-03-20T07:04:44.972Z,102080.38
2023-03-20T07:07:11.483Z,102086.31
2023-03-20T07:09:38.383Z,102081.22
2023-03-20T07:12:05.066Z,102082.09
2023-03-20T07:14:31.770Z,102088.06
2023-03-20T07:16:58.519Z,102080.44
2023-03-20T07:19:25.476Z,102079.56
2023-03-20T07:21:58.766Z,102079.59
2023-03-20T07:24:25.367Z,102078.72
2023-03-20T07:26:51.833Z,102079.59
2023-03-20T07:29:18.363Z,102079.56
2023-03-20T07:31:44.877Z,102079.59
2023-03-20T07:34:12.785Z,102078.72
2023-03-20T07:36:39.324Z,102088.09
2023-03-20T07:39:06.214Z,102085.56
2023-03-20T07:41:32.721Z,102085.56
2023-03-20T07:43:59.145Z,102086.41
2023-03-20T07:46:26.369Z,102090.66
2023-03-20T07:48:52.835Z,102090.66
2023-03-20T07:51:19.266Z,102083.91
2023-03-20T07:53:45.823Z,102077.13
2023-03-20T07:56:12.197Z,102082.22
2023-03-20T07:58:38.611Z,102084.78
2023-03-20T08:01:05.200Z,102078.00
2023-03-20T08:03:31.957Z,102089.03
2023-03-20T08:05:58.595Z,102089.06
2023-03-20T08:08:25.611Z,102080.59
2023-03-20T08:10:52.044Z,102086.56
2023-03-20T08:13:18.553Z,102081.47
2023-03-20T08:15:47.174Z,102084.91
2023-03-20T08:18:13.816Z,102088.31
2023-03-20T08:20:40.569Z,102089.16
2023-03-20T08:23:07.870Z,102074.72
2023-03-20T08:25:35.167Z,102082.38
2023-03-20T08:28:01.815Z,102080.69
2023-03-20T08:30:28.461Z,102090.88
2023-03-20T08:32:55.129Z,102081.53
2023-03-20T08:35:32.622Z,102084.09
2023-03-20T08:38:00.860Z,102077.31
2023-03-20T08:40:27.598Z,102080.72
2023-03-20T08:42:54.040Z,102081.56
2023-03-20T08:45:20.897Z,102079.03
2023-03-20T08:47:48.797Z,102072.22
2023-03-20T08:50:16.224Z,102081.59
2023-03-20T08:52:44.247Z,102086.69
2023-03-20T08:55:12.050Z,102081.59
2023-03-20T08:57:38.532Z,102080.72
2023-03-20T09:00:07.293Z,102084.13
2023-03-20T09:02:34.507Z,102077.31
2023-03-20T09:05:01.446Z,102084.16
2023-03-20T09:07:27.968Z,102088.38
2023-03-20T09:09:54.393Z,102085.84
2023-03-20T09:12:20.963Z,102088.38
2023-03-20T09:14:47.481Z,102086.69
2023-03-20T09:17:13.967Z,102088.38
2023-03-20T09:19:44.072Z,102090.94
2023-03-20T09:22:14.454Z,102096.91
2023-03-20T09:24:41.141Z,102092.66
2023-03-20T09:27:07.611Z,102096.03
2023-03-20T09:29:34.111Z,102092.63
2023-03-20T09:32:01.067Z,102087.53
2023-03-20T09:34:29.625Z,102093.50
2023-03-20T09:36:56.301Z,102087.56
2023-03-20T09:39:22.799Z,102092.69
2023-03-20T09:41:57.157Z,102099.47
2023-03-20T09:44:38.284Z,102091.81
2023-03-20T09:47:20.515Z,102088.41
2023-03-20T09:50:02.541Z,102098.59
2023-03-20T09:52:41.461Z,102083.28
2023-03-20T09:55:17.550Z,102085.88
2023-03-20T09:57:49.246Z,102085.03
2023-03-20T10:00:24.645Z,102078.19
2023-03-20T10:02:59.732Z,102078.19
2023-03-20T10:05:30.195Z,102074.78
2023-03-20T10:08:03.116Z,102079.88
2023-03-20T10:10:41.784Z,102084.94
2023-03-20T10:13:23.404Z,102074.72
2023-03-20T10:15:59.341Z,102074.66
2023-03-20T10:18:29.708Z,102069.56
2023-03-20T10:21:18.761Z,102072.97
2023-03-20T10:24:06.958Z,102074.69
2023-03-20T10:26:36.146Z,102078.09
2023-03-20T10:29:12.869Z,102074.69
2023-03-20T10:32:00.448Z,102069.59
2023-03-20T10:34:30.356Z,102072.13
2023-03-20T10:37:16.820Z,102057.66
2023-03-20T10:40:14.057Z,102055.06
2023-03-20T10:42:46.947Z,102056.75
2023-03-20T10:45:46.497Z,102057.63
2023-03-20T10:48:21.342Z,102064.47
2023-03-20T10:50:53.994Z,102057.66
2023-03-20T10:53:31.481Z,102048.28
2023-03-20T10:56:03.198Z,102049.13
2023-03-20T10:58:38.593Z,102067.88
2023-03-20T11:01:05.484Z,102043.16
2023-03-20T11:03:34.382Z,102047.34
2023-03-20T11:06:10.177Z,102049.94
2023-03-20T11:08:41.862Z,102056.78
2023-03-20T11:11:09.073Z,102050.81
2023-03-20T11:13:43.615Z,102044.03
2023-03-20T11:16:31.794Z,102047.44
2023-03-20T11:19:06.098Z,102046.59
2023-03-20T11:21:33.702Z,102047.47
2023-03-20T11:24:01.406Z,102051.72
2023-03-20T11:26:32.458Z,102042.31
2023-03-20T11:28:59.862Z,102046.59
2023-03-20T11:31:38.866Z,102039.78
2023-03-20T11:34:24.143Z,102031.25
2023-03-20T11:37:09.587Z,102021.03
2023-03-20T11:39:38.068Z,102015.94
2023-03-20T11:42:05.682Z,102011.69
2023-03-20T11:44:36.814Z,102014.22
2023-03-20T11:47:04.746Z,102006.53
2023-03-20T11:49:34.951Z,102009.06
2023-03-20T11:52:12.657Z,102008.25
2023-03-20T11:54:48.710Z,102009.94
2023-03-20T11:57:32.367Z,102009.06
2023-03-20T12:00:03.130Z,102007.38
2023-03-20T12:02:29.907Z,102008.22
2023-03-20T12:05:00.445Z,102009.84
2023-03-20T12:07:33.933Z,101999.59
2023-03-20T12:10:06.016Z,101998.75
2023-03-20T12:12:41.179Z,102005.50
2023-03-20T12:15:22.033Z,102002.91
2023-03-20T12:17:54.548Z,102000.31
2023-03-20T12:20:55.293Z,102007.16
2023-03-20T12:23:37.251Z,102006.34
2023-03-20T12:26:27.813Z,102002.09
2023-03-20T12:29:13.019Z,102004.69
2023-03-20T12:31:46.831Z,102012.41
2023-03-20T12:34:28.113Z,102008.16
2023-03-20T12:36:57.379Z,102002.28
2023-03-20T12:39:31.860Z,102003.09
2023-03-20T12:42:18.624Z,101997.09
2023-03-20T12:44:54.856Z,101998.81
2023-03-20T12:47:59.736Z,101991.97
2023-03-20T12:50:36.332Z,101985.09
2023-03-20T12:53:35.188Z,101985.06
2023-03-20T12:56:08.698Z,101987.66
2023-03-20T12:58:44.824Z,101986.78
2023-03-20T13:01:11.352Z,101986.78
2023-03-20T13:03:50.013Z,101976.53
2023-03-20T13:06:38.806Z,101978.31
2023-03-20T13:09:23.150Z,101972.34
2023-03-20T13:12:04.729Z,101971.50
2023-03-20T13:14:37.229Z,101972.38
2023-03-20T13:17:35.842Z,101973.25
2023-03-20T13:20:17.343Z,101967.25
2023-03-20T13:23:05.646Z,101969.00
2023-03-20T13:25:53.730Z,101970.69
2023-03-20T13:28:39.599Z,101964.72
2023-03-20T13:31:28.004Z,101963.03
2023-03-20T13:34:04.479Z,101960.41
2023-03-20T13:36:52.417Z,101963.84
2023-03-20T13:39:29.680Z,101958.72
2023-03-20T13:41:59.237Z,101953.59
2023-03-20T13:44:29.299Z,101951.94
2023-03-20T13:47:12.220Z,101945.13
2023-03-20T13:49:55.851Z,101951.09
2023-03-20T13:52:26.003Z,101940.00
2023-03-20T13:54:59.235Z,101946.84
2023-03-20T13:57:31.691Z,101942.59
2023-03-20T14:00:09.359Z,101946.00
2023-03-20T14:03:06.210Z,101952.81
2023-03-20T14:05:38.040Z,101946.84
2023-03-20T14:08:27.759Z,101940.00
2023-03-20T14:11:06.992Z,101939.16
2023-03-20T14:13:35.249Z,101940.81
2023-03-20T14:16:07.312Z,101939.13
2023-03-20T14:18:33.889Z,101936.56
2023-03-20T14:21:03.331Z,101945.09
2023-03-20T14:23:29.742Z,101943.38
2023-03-20T14:25:57.350Z,101945.94
2023-03-20T14:28:35.478Z,101940.84
2023-03-20T14:31:20.406Z,101940.03
2023-03-20T14:33:57.734Z,101944.31
2023-03-20T14:36:48.964Z,101943.50
2023-03-20T14:39:57.542Z,101943.53
2023-03-20T14:42:32.923Z,101938.44
2023-03-20T14:45:42.037Z,101939.28
2023-03-20T14:48:52.173Z,101940.16
2023-03-20T14:51:39.071Z,101935.03
2023-03-20T14:54:26.455Z,101944.41
2023-03-20T14:56:53.851Z,101935.06
2023-03-20T14:59:22.749Z,101940.19
2023-03-20T15:02:00.340Z,101934.19
2023-03-20T15:04:39.420Z,101935.06
2023-03-20T15:07:22.474Z,101938.47
2023-03-20T15:09:53.415Z,101927.44
2023-03-20T15:12:24.631Z,101935.09
2023-03-20T15:14:58.197Z,101934.28
2023-03-20T15:17:36.325Z,101935.13
2023-03-20T15:20:18.029Z,101933.44
2023-03-20T15:23:10.996Z,101930.88
2023-03-20T15:25:43.812Z,101928.31
2023-03-20T15:28:25.622Z,101922.34
2023-03-20T15:30:55.614Z,101927.44
2023-03-20T15:33:27.648Z,101922.31
2023-03-20T15:35:54.656Z,101918.06
2023-03-20T15:38:21.757Z,101918.91
2023-03-20T15:40:51.313Z,101916.34
2023-03-20T15:43:24.841Z,101913.81
2023-03-20T15:46:02.772Z,101919.78
2023-03-20T15:48:33.215Z,101920.63
2023-03-20T15:51:05.136Z,101911.28
2023-03-20T15:53:37.739Z,101907.91
2023-03-20T15:56:19.353Z,101908.69
2023-03-20T15:58:49.102Z,101910.44
2023-03-20T16:01:21.467Z,101907.06
2023-03-20T16:03:49.306Z,101912.97
2023-03-20T16:06:21.083Z,101906.19
2023-03-20T16:08:58.401Z,101906.19
2023-03-20T16:11:24.978Z,101902.75
2023-03-20T16:13:53.217Z,101900.22
2023-03-20T16:16:23.860Z,101903.66
2023-03-20T16:18:51.019Z,101901.06
2023-03-20T16:21:24.892Z,101907.91
2023-03-20T16:23:57.293Z,101899.38
2023-03-20T16:26:26.138Z,101901.91
2023-03-20T16:28:55.395Z,101897.66
2023-03-20T16:31:31.798Z,101896.84
2023-03-20T16:34:05.929Z,101896.84
2023-03-20T16:36:37.714Z,101889.19
2023-03-20T16:39:18.052Z,101885.78
2023-03-20T16:41:46.252Z,101897.69
2023-03-20T16:44:28.098Z,101894.28
2023-03-20T16:46:54.615Z,101890.88
2023-03-20T16:49:27.175Z,101895.16
2023-03-20T16:51:59.527Z,101898.53
2023-03-20T16:54:29.254Z,101890.88
2023-03-20T16:56:56.620Z,101890.84
2023-03-20T16:59:25.278Z,101890.84
2023-03-20T17:01:54.112Z,101893.41
2023-03-20T17:04:32.962Z,101896.84
2023-03-20T17:07:06.632Z,101892.56
2023-03-20T17:09:33.468Z,101891.72
2023-03-20T17:12:13.026Z,101888.31
2023-03-20T17:14:45.165Z,101901.09
2023-03-20T17:17:13.925Z,101891.72
2023-03-20T17:19:40.926Z,101891.72
2023-03-20T17:22:15.716Z,101890.06
2023-03-20T17:24:42.269Z,101898.53
2023-03-20T17:27:12.065Z,101890.88
2023-03-20T17:29:40.515Z,101890.84
2023-03-20T17:32:15.948Z,101899.38
2023-03-20T17:34:43.260Z,101892.59
2023-03-20T17:37:29.835Z,101902.78
2023-03-20T17:39:56.868Z,101906.19
2023-03-20T17:42:26.887Z,101902.81
2023-03-20T17:44:53.416Z,101901.09
2023-03-20T17:47:22.964Z,101903.63
2023-03-20T17:49:50.329Z,101906.19
2023-03-20T17:52:19.200Z,101905.34
2023-03-20T17:54:46.400Z,101906.19
2023-03-20T17:57:26.609Z,101905.31
2023-03-20T17:59:53.126Z,101901.91
2023-03-20T18:02:19.731Z,101898.53
2023-03-20T18:04:46.806Z,101896.81
2023-03-20T18:07:14.129Z,101895.97
2023-03-20T18:09:41.768Z,101899.34
2023-03-20T18:12:15.657Z,101906.16
2023-03-20T18:14:43.527Z,101902.75
2023-03-20T18:17:14.226Z,101901.03
2023-03-20T18:19:41.766Z,101905.31
2023-03-20T18:22:08.725Z,101903.59
2023-03-20T18:24:36.076Z,101907.84
2023-03-20T18:27:03.011Z,101902.75
2023-03-20T18:29:29.566Z,101901.03
2023-03-20T18:31:56.158Z,101907.84
2023-03-20T18:34:22.681Z,101909.53
2023-03-20T18:36:49.201Z,101906.13
2023-03-20T18:39:24.376Z,101906.13
2023-03-20T18:41:51.492Z,101906.94
2023-03-20T18:44:18.096Z,101909.50
2023-03-20T18:46:44.705Z,101909.53
2023-03-20T18:49:16.586Z,101900.13
2023-03-20T18:51:43.736Z,101889.91
2023-03-20T18:54:10.467Z,101899.28
2023-03-20T18:56:37.843Z,101898.44
2023-03-20T18:59:07.782Z,101902.69
2023-03-20T19:01:36.086Z,101888.22
2023-03-20T19:04:03.279Z,101898.41
2023-03-20T19:06:32.014Z,101895.00
2023-03-20T19:08:58.660Z,101901.78
2023-03-20T19:11:25.280Z,101894.16
2023-03-20T19:13:53.177Z,101890.72
2023-03-20T19:16:31.619Z,101883.91
2023-03-20T19:19:01.381Z,101890.69
2023-03-20T19:21:32.522Z,101890.69
2023-03-20T19:24:01.872Z,101886.44
2023-03-20T19:26:30.314Z,101885.59
2023-03-20T19:28:58.557Z,101878.75
2023-03-20T19:31:26.054Z,101884.72
2023-03-20T19:33:52.830Z,101886.44
2023-03-20T19:36:32.030Z,101882.16
2023-03-20T19:39:00.378Z,101879.59
2023-03-20T19:41:28.690Z,101880.44
2023-03-20T19:43:55.964Z,101875.31
2023-03-20T19:46:38.768Z,101875.31
2023-03-20T19:49:17.340Z,101876.16
2023-03-20T19:51:44.912Z,101871.03
2023-03-20T19:54:11.610Z,101870.19
2023-03-20T19:56:38.122Z,101870.19
2023-03-20T19:59:05.773Z,101871.91
2023-03-20T20:01:35.019Z,101871.91
2023-03-20T20:04:01.752Z,101875.25
2023-03-20T20:06:32.169Z,101870.16
2023-03-20T20:09:00.857Z,101869.28
2023-03-20T20:11:30.371Z,101868.47
2023-03-20T20:14:06.777Z,101859.06
2023-03-20T20:16:40.073Z,101864.19
2023-03-20T20:19:06.915Z,101865.00
2023-03-20T20:24:20.241Z,101870.97
2023-03-20T20:27:07.052Z,101877.78
2023-03-20T20:29:37.739Z,101869.25
2023-03-20T20:32:04.454Z,101865.84
2023-03-20T20:38:09.084Z,101865.00
2023-03-20T20:40:14.946Z,101859.03
2023-03-20T20:42:43.227Z,101855.63
2023-03-20T20:45:14.297Z,101855.63
2023-03-20T20:47:41.996Z,101856.47
2023-03-20T20:50:09.346Z,101858.16
2023-03-20T20:52:37.022Z,101856.44
2023-03-20T20:55:21.770Z,101860.69
2023-03-20T20:57:50.074Z,101847.91
2023-03-20T21:00:18.296Z,101835.97
2023-03-20T21:02:44.890Z,101845.38
2023-03-20T21:05:16.643Z,101846.19
2023-03-20T21:07:45.173Z,101846.19
2023-03-20T21:10:13.037Z,101842.81
2023-03-20T21:12:55.936Z,101842.78
2023-03-20T21:15:25.209Z,101847.03
2023-03-20T21:18:00.403Z,101841.91
2023-03-20T21:20:27.953Z,101856.41
2023-03-20T21:22:54.379Z,101853.00
2023-03-20T21:25:38.409Z,101850.44
2023-03-20T21:28:06.558Z,101858.91
2023-03-20T21:30:33.537Z,101858.91
2023-03-20T21:33:00.462Z,101855.53
2023-03-20T21:35:27.549Z,101855.53
2023-03-20T21:40:41.950Z,101853.00
2023-03-20T21:43:09.421Z,101857.25
2023-03-20T21:46:25.041Z,101854.69
2023-03-20T21:49:03.846Z,101859.78
2023-03-20T21:57:21.203Z,101856.41
2023-03-20T22:02:23.682Z,101852.16
2023-03-20T22:05:41.887Z,101855.59
2023-03-20T22:08:19.540Z,101858.97
2023-03-20T22:14:13.428Z,101852.13
2023-03-20T22:16:43.203Z,101857.25
2023-03-20T22:22:23.172Z,101858.97
2023-03-20T22:33:33.129Z,101854.72
2023-03-20T22:41:59.237Z,101841.94
2023-03-20T22:46:45.766Z,101843.66
2023-03-20T22:49:13.327Z,101841.13
2023-03-20T22:51:52.239Z,101841.97
2023-03-20T22:54:24.495Z,101847.06
2023-03-20T22:56:50.966Z,101838.56
2023-03-20T22:59:17.420Z,101833.47
2023-03-20T23:01:43.919Z,101841.97
2023-03-20T23:04:10.560Z,101840.28
2023-03-20T23:06:37.088Z,101843.66
2023-03-20T23:09:14.468Z,101838.53
2023-03-20T23:11:41.773Z,101836.84
2023-03-20T23:14:18.311Z,101840.28
2023-03-20T23:16:46.941Z,101836.00
2023-03-20T23:19:13.452Z,101832.63
2023-03-20T23:21:40.163Z,101828.34
2023-03-20T23:24:07.309Z,101828.31
2023-03-20T23:26:33.710Z,101825.78
2023-03-20T23:29:01.634Z,101826.63
2023-03-20T23:31:28.128Z,101822.38
2023-03-20T23:33:57.387Z,101825.81
2023-03-20T23:36:35.842Z,101823.25
2023-03-20T23:39:06.167Z,101825.81
2023-03-20T23:41:58.023Z,101818.13
2023-03-20T23:44:19.821Z,101818.16
2023-03-20T23:46:48.113Z,101814.78
2023-03-20T23:49:15.675Z,101815.59
2023-03-20T23:51:42.205Z,101814.75
2023-03-20T23:54:10.667Z,101807.06
2023-03-20T23:56:37.113Z,101807.06
2023-03-20T23:59:18.361Z,101809.63
